Park Rapids, Minnesota
Current Conditions -  °F | °C
As of 4:20 PM on Wednesday 28 Jan 2015 (Local Time) from KPKD Reporting Station
Haze Haze  
Wind Chill: 24°   Ceiling: 300
Heat Index: 31°   Visibility: 0.75mi
Dew Point: 30°   Wind: 7mph
Humidity: 96%   Direction: 180°S
Pressure: 29.76"   Gusts: NA
Location:  46.92°N, 95.06°W
Report Text: KPKD 282220Z AUTO 18006KT 3/4SM BR OVC003 M01/M01 A2976 RMK AO2 T10061011
Loading
Personal Weather Stations






























Interactive Weather Map New forecast layout! Learn more

10-Day Weather Forecast

Advertisements
Track Severe Weather on mobile